Time;durP1;ratioP1;P1;durP2;ratioP2;P2;SDS_P1;SDS_P2;PMS_P1;PMS_P2;Temp;Humidity;BMP_temperature;BMP_pressure;BME280_temperature;BME280_humidity;BME280_pressure;Samples;Min_cycle;Max_cycle;Signal;HPM_P1;HPM_P2
2021/10/12 00:01:36;;;;;;;19.45;10.40;;;10.00;99.90;;;;;;5002435;28;20565;-87
2021/10/12 00:04:05;;;;;;;22.67;10.70;;;9.90;99.90;;;;;;4999778;28;20066;-89
2021/10/12 00:06:35;;;;;;;27.25;11.15;;;10.00;99.90;;;;;;4979889;28;20064;-85
2021/10/12 00:09:03;;;;;;;24.05;10.18;;;9.90;99.90;;;;;;4975825;28;20050;-86
2021/10/12 00:11:31;;;;;;;28.52;10.98;;;9.90;99.90;;;;;;4955108;29;20071;-87
2021/10/12 00:14:13;;;;;;;28.63;12.02;;;9.90;99.90;;;;;;4955594;28;20051;-88
2021/10/12 00:16:41;;;;;;;17.27;10.52;;;9.90;99.90;;;;;;4960678;28;20051;-88
2021/10/12 00:19:11;;;;;;;24.52;10.73;;;9.80;99.90;;;;;;4982801;28;20050;-86
2021/10/12 00:21:38;;;;;;;30.13;11.65;;;9.90;99.90;;;;;;4964748;28;20061;-87
2021/10/12 00:24:09;;;;;;;21.88;9.30;;;9.80;99.90;;;;;;4963766;28;20047;-88
2021/10/12 00:26:39;;;;;;;26.13;10.35;;;9.80;99.90;;;;;;4946588;29;20523;-87
2021/10/12 00:29:11;;;;;;;31.50;12.05;;;9.70;99.90;;;;;;4962906;28;20046;-86
2021/10/12 00:31:41;;;;;;;22.25;11.02;;;9.80;99.90;;;;;;4976987;28;20050;-85
2021/10/12 00:34:09;;;;;;;30.45;11.50;;;9.70;99.90;;;;;;4980117;28;20065;-85
2021/10/12 00:36:37;;;;;;;21.90;9.90;;;9.70;99.90;;;;;;4978213;28;20058;-87
2021/10/12 00:39:06;;;;;;;24.05;12.93;;;9.70;99.90;;;;;;4977522;28;20062;-86
2021/10/12 00:41:37;;;;;;;20.75;10.00;;;9.70;99.90;;;;;;4982516;28;20054;-87
2021/10/12 00:44:08;;;;;;;24.95;11.10;;;9.70;99.90;;;;;;4965952;28;20459;-88
2021/10/12 00:46:39;;;;;;;34.85;12.80;;;9.70;99.90;;;;;;4971979;28;20058;-85
2021/10/12 00:49:08;;;;;;;20.30;11.13;;;9.70;99.90;;;;;;4956372;28;20054;-84
2021/10/12 00:51:36;;;;;;;26.90;12.02;;;9.70;99.90;;;;;;4991990;28;20063;-87
2021/10/12 00:54:06;;;;;;;26.80;10.55;;;9.70;99.90;;;;;;4993222;28;20394;-86
2021/10/12 00:56:36;;;;;;;28.88;13.20;;;9.60;99.90;;;;;;4962067;28;20059;-87
2021/10/12 00:59:07;;;;;;;24.92;11.38;;;9.60;99.90;;;;;;4975558;28;20601;-85
2021/10/12 01:01:37;;;;;;;29.50;11.52;;;9.60;99.90;;;;;;4978197;28;20051;-87
2021/10/12 01:04:07;;;;;;;23.98;13.18;;;9.50;99.90;;;;;;4962732;28;20058;-87
2021/10/12 01:06:35;;;;;;;30.52;10.80;;;9.50;99.90;;;;;;4978400;28;20062;-87
2021/10/12 01:09:04;;;;;;;24.77;10.70;;;9.50;99.90;;;;;;5000324;28;20059;-88
2021/10/12 01:11:33;;;;;;;21.85;12.00;;;9.90;99.90;;;;;;5001298;28;20054;-86
2021/10/12 01:14:03;;;;;;;29.80;11.05;;;9.50;99.90;;;;;;4994611;28;20062;-87
2021/10/12 01:16:31;;;;;;;26.40;10.18;;;9.70;99.90;;;;;;4994218;28;20057;-85
2021/10/12 01:19:08;;;;;;;26.23;11.88;;;9.50;99.90;;;;;;4977924;28;20050;-84
2021/10/12 01:21:45;;;;;;;25.48;11.73;;;9.50;99.90;;;;;;4990126;28;20055;-85
2021/10/12 01:24:16;;;;;;;30.50;11.38;;;9.50;99.90;;;;;;4992915;28;20042;-88
2021/10/12 01:26:45;;;;;;;30.70;11.15;;;9.50;99.90;;;;;;4993181;28;20491;-86
2021/10/12 01:29:15;;;;;;;;;;;9.50;99.90;;;;;;5003703;28;20072;-89
2021/10/12 01:31:43;;;;;;;22.90;11.80;;;9.50;99.90;;;;;;4982706;28;19926;-87
2021/10/12 01:34:18;;;;;;;26.98;11.07;;;9.50;99.90;;;;;;4978942;28;20061;-86
2021/10/12 01:36:47;;;;;;;24.50;10.00;;;9.50;99.90;;;;;;4986836;28;20062;-87
2021/10/12 01:39:17;;;;;;;27.73;11.55;;;9.50;99.90;;;;;;4978413;28;20065;-87
2021/10/12 01:41:45;;;;;;;32.58;10.73;;;9.40;99.90;;;;;;4970934;28;20482;-86
2021/10/12 01:44:15;;;;;;;29.48;9.63;;;9.40;99.90;;;;;;4981558;28;20479;-86
2021/10/12 01:46:43;;;;;;;24.77;11.55;;;9.40;99.90;;;;;;4975271;28;20788;-87
2021/10/12 01:49:11;;;;;;;28.60;9.68;;;9.40;99.90;;;;;;4973057;28;20049;-85
2021/10/12 01:51:39;;;;;;;29.85;11.27;;;9.40;99.90;;;;;;4958419;28;20872;-87
2021/10/12 01:54:25;;;;;;;20.33;8.68;;;9.40;99.90;;;;;;4965422;28;20047;-87
2021/10/12 01:56:54;;;;;;;22.08;9.88;;;9.40;99.90;;;;;;5003143;28;20053;-86
2021/10/12 01:59:22;;;;;;;29.33;11.05;;;9.40;99.90;;;;;;4965867;28;20042;-85
2021/10/12 02:01:49;;;;;;;27.20;10.13;;;9.30;99.90;;;;;;4971845;28;20046;-85
2021/10/12 02:04:18;;;;;;;18.90;9.32;;;9.50;99.90;;;;;;4961194;28;20474;-86
2021/10/12 02:06:45;;;;;;;24.10;11.02;;;9.30;99.90;;;;;;4990388;28;20498;-87
2021/10/12 02:09:14;;;;;;;25.08;11.05;;;9.30;99.90;;;;;;5015424;28;20297;-87
2021/10/12 02:11:43;;;;;;;33.95;10.75;;;9.20;99.90;;;;;;4980389;28;20789;-88
2021/10/12 02:14:11;;;;;;;24.73;9.77;;;9.30;99.90;;;;;;4966248;28;20035;-86
2021/10/12 02:16:39;;;;;;;20.25;10.02;;;9.30;99.90;;;;;;4988253;28;20046;-84
2021/10/12 02:19:09;;;;;;;25.80;9.60;;;9.20;99.90;;;;;;4975038;28;20054;-86
2021/10/12 02:21:36;;;;;;;25.35;11.85;;;9.30;99.90;;;;;;4975145;28;20043;-88
2021/10/12 02:24:04;;;;;;;33.83;12.73;;;9.30;99.90;;;;;;4990524;28;20494;-87
2021/10/12 02:26:33;;;;;;;29.25;10.65;;;9.30;99.90;;;;;;4973229;28;20073;-87
2021/10/12 02:29:01;;;;;;;27.33;12.05;;;9.30;99.90;;;;;;5018417;28;20498;-86
2021/10/12 02:31:29;;;;;;;28.98;10.10;;;9.40;99.90;;;;;;4972786;28;20383;-86
2021/10/12 02:33:57;;;;;;;27.30;10.40;;;9.40;99.90;;;;;;4990324;28;20061;-87
2021/10/12 02:36:24;;;;;;;19.95;8.93;;;9.40;99.90;;;;;;4992073;28;20053;-88
2021/10/12 02:38:52;;;;;;;31.92;9.88;;;9.50;99.90;;;;;;4989148;28;20052;-90
2021/10/12 02:41:20;;;;;;;29.65;8.60;;;9.40;99.90;;;;;;4993947;28;20051;-87
2021/10/12 02:43:49;;;;;;;27.33;11.57;;;9.50;99.90;;;;;;4972937;28;20054;-86
2021/10/12 02:46:18;;;;;;;20.38;8.40;;;9.40;99.90;;;;;;4965097;28;20043;-87
2021/10/12 02:48:48;;;;;;;20.58;8.35;;;9.50;99.90;;;;;;4968165;28;20065;-87
2021/10/12 02:51:16;;;;;;;28.60;8.85;;;9.50;99.90;;;;;;4983841;28;20429;-86
2021/10/12 02:53:44;;;;;;;22.48;9.80;;;9.50;99.90;;;;;;4983735;28;20054;-86
2021/10/12 02:56:12;;;;;;;26.45;12.07;;;9.50;99.90;;;;;;4963252;28;20051;-87
2021/10/12 02:58:41;;;;;;;22.13;8.93;;;9.50;99.90;;;;;;4985746;28;20054;-86
2021/10/12 03:01:09;;;;;;;28.50;10.50;;;9.50;99.90;;;;;;4977082;28;20173;-87
2021/10/12 03:04:03;;;;;;;23.17;9.13;;;9.60;99.90;;;;;;4988372;28;20042;-87
2021/10/12 03:06:31;;;;;;;27.48;8.65;;;9.50;99.90;;;;;;4991992;28;20054;-86
2021/10/12 03:08:59;;;;;;;16.52;9.55;;;9.50;99.90;;;;;;4991790;28;20402;-85
2021/10/12 03:11:27;;;;;;;20.23;7.97;;;9.50;99.90;;;;;;5001488;28;20042;-87
2021/10/12 03:13:55;;;;;;;21.83;9.95;;;9.50;99.90;;;;;;5005637;28;20130;-86
2021/10/12 03:16:22;;;;;;;27.17;10.05;;;9.50;99.90;;;;;;5001548;28;20057;-86
2021/10/12 03:18:50;;;;;;;27.80;8.52;;;9.50;99.90;;;;;;4996818;28;20054;-85
2021/10/12 03:21:19;;;;;;;24.05;8.80;;;9.50;99.90;;;;;;4963318;28;20550;-87
2021/10/12 03:23:47;;;;;;;22.48;9.85;;;9.50;99.90;;;;;;4985222;28;20517;-85
2021/10/12 03:26:15;;;;;;;19.17;10.63;;;9.40;99.90;;;;;;4992640;28;20050;-87
2021/10/12 03:28:43;;;;;;;28.25;10.68;;;9.60;99.90;;;;;;4979406;28;20050;-88
2021/10/12 03:31:12;;;;;;;21.38;7.43;;;9.30;99.90;;;;;;4975921;28;20078;-85
2021/10/12 03:33:39;;;;;;;24.38;9.27;;;9.40;99.90;;;;;;4975324;28;20057;-89
2021/10/12 03:36:16;;;;;;;31.08;11.05;;;9.30;99.90;;;;;;4989226;28;20050;-86
2021/10/12 03:38:44;;;;;;;24.80;8.20;;;9.30;99.90;;;;;;4952153;28;20050;-88
2021/10/12 03:41:12;;;;;;;20.77;9.13;;;9.30;99.90;;;;;;4988788;28;20050;-89
2021/10/12 03:43:40;;;;;;;18.85;7.82;;;9.30;99.90;;;;;;4983699;28;20057;-88
2021/10/12 03:46:08;;;;;;;21.30;8.05;;;9.30;99.90;;;;;;4970976;28;20051;-85
2021/10/12 03:48:36;;;;;;;21.48;8.25;;;9.30;99.90;;;;;;4990944;28;20065;-86
2021/10/12 03:51:08;;;;;;;20.90;7.65;;;9.30;99.90;;;;;;4984124;28;20047;-87
2021/10/12 03:53:36;;;;;;;28.55;11.18;;;9.60;99.90;;;;;;4987281;28;20054;-86
2021/10/12 03:56:07;;;;;;;26.37;10.40;;;9.20;99.90;;;;;;4982227;28;20065;-86
2021/10/12 03:58:35;;;;;;;26.80;9.45;;;9.20;99.90;;;;;;4992221;28;20296;-87
2021/10/12 04:01:03;;;;;;;23.98;8.27;;;9.20;99.90;;;;;;4988469;28;20599;-86
2021/10/12 04:03:30;;;;;;;23.25;9.60;;;9.20;99.90;;;;;;5000443;28;20053;-86
2021/10/12 04:05:58;;;;;;;26.85;9.93;;;9.20;99.90;;;;;;4966206;28;20494;-88
2021/10/12 04:08:26;;;;;;;24.35;10.45;;;9.20;99.90;;;;;;4967608;28;20070;-87
2021/10/12 04:10:54;;;;;;;21.67;9.93;;;9.20;99.90;;;;;;4956549;28;20054;-87
2021/10/12 04:13:22;;;;;;;29.02;9.55;;;9.20;99.90;;;;;;4953344;28;20055;-84
2021/10/12 04:15:49;;;;;;;29.58;10.98;;;9.10;99.90;;;;;;4954088;28;20043;-86
2021/10/12 04:18:18;;;;;;;24.63;8.35;;;9.10;99.90;;;;;;4963424;28;20058;-86
2021/10/12 04:20:46;;;;;;;21.33;10.45;;;9.10;99.90;;;;;;4969592;28;20050;-85
2021/10/12 04:23:14;;;;;;;24.85;9.23;;;9.10;99.90;;;;;;4961231;28;20051;-88
2021/10/12 04:25:42;;;;;;;23.40;8.85;;;9.00;99.90;;;;;;4971154;28;20047;-84
2021/10/12 04:28:15;;;;;;;25.27;10.18;;;9.00;99.90;;;;;;4973214;28;20055;-86
2021/10/12 04:30:46;;;;;;;29.23;10.35;;;9.00;99.90;;;;;;4969792;28;20051;-87
2021/10/12 04:33:14;;;;;;;;;;;9.00;99.90;;;;;;4934482;28;20069;-90
2021/10/12 04:35:43;;;;;;;28.20;9.95;;;9.00;99.90;;;;;;4974675;28;20493;-86
2021/10/12 04:38:12;;;;;;;20.38;9.77;;;9.00;99.90;;;;;;4968291;28;20395;-85
2021/10/12 04:40:42;;;;;;;22.15;9.40;;;9.00;99.90;;;;;;4969346;28;20514;-87
2021/10/12 04:43:09;;;;;;;23.25;8.70;;;9.00;99.90;;;;;;4970660;28;20514;-87
2021/10/12 04:45:39;;;;;;;22.08;8.35;;;9.10;99.90;;;;;;4966286;28;20066;-88
2021/10/12 04:48:07;;;;;;;18.38;9.30;;;9.00;99.90;;;;;;4979749;28;20051;-88
2021/10/12 04:50:37;;;;;;;21.25;7.93;;;9.00;99.90;;;;;;4960130;28;20062;-87
2021/10/12 04:53:05;;;;;;;21.38;8.32;;;8.90;99.90;;;;;;4966882;28;20054;-87
2021/10/12 04:55:34;;;;;;;25.00;8.93;;;8.90;99.90;;;;;;4947030;28;20055;-87
2021/10/12 04:58:05;;;;;;;;;;;8.90;99.90;;;;;;4978150;28;20062;-88
2021/10/12 05:00:34;;;;;;;24.58;11.88;;;8.90;99.90;;;;;;4961501;28;19922;-85
2021/10/12 05:03:05;;;;;;;26.63;9.57;;;8.90;99.90;;;;;;4977019;28;20051;-85
2021/10/12 05:05:35;;;;;;;28.98;10.70;;;8.80;99.90;;;;;;4959183;28;20055;-86
2021/10/12 05:08:03;;;;;;;34.63;9.57;;;8.80;99.90;;;;;;4991532;28;20054;-87
2021/10/12 05:10:31;;;;;;;20.77;9.23;;;8.80;99.90;;;;;;4996540;28;20045;-86
2021/10/12 05:13:00;;;;;;;32.75;10.90;;;9.30;99.90;;;;;;4996380;28;20047;-89
2021/10/12 05:15:29;;;;;;;30.65;11.13;;;10.00;99.90;;;;;;4966380;28;20135;-86
2021/10/12 05:17:57;;;;;;;23.30;8.80;;;8.80;99.90;;;;;;4971246;28;20054;-88
2021/10/12 05:20:25;;;;;;;20.60;8.50;;;9.40;99.90;;;;;;4988630;28;20475;-87
2021/10/12 05:22:55;;;;;;;34.28;11.07;;;8.90;99.90;;;;;;4981548;28;20046;-88
2021/10/12 05:25:23;;;;;;;29.35;10.27;;;8.90;99.90;;;;;;4996628;28;20057;-89
2021/10/12 05:27:51;;;;;;;21.42;10.52;;;8.90;99.90;;;;;;5002522;28;20042;-87
2021/10/12 05:30:24;;;;;;;30.33;10.35;;;8.90;99.90;;;;;;5002632;28;20065;-92
2021/10/12 05:32:54;;;;;;;28.13;9.68;;;8.90;99.90;;;;;;4997120;28;20402;-87
2021/10/12 05:35:23;;;;;;;28.85;11.32;;;8.80;99.90;;;;;;4997606;28;20054;-88
2021/10/12 05:37:52;;;;;;;21.35;8.52;;;8.90;99.90;;;;;;4960971;28;20059;-85
2021/10/12 05:40:24;;;;;;;26.67;10.32;;;8.90;99.90;;;;;;4985308;28;20517;-86
2021/10/12 05:42:52;;;;;;;25.85;10.18;;;8.90;99.90;;;;;;4963746;28;20047;-90
2021/10/12 05:45:21;;;;;;;30.17;10.63;;;8.90;99.90;;;;;;4980568;28;20494;-88
2021/10/12 05:47:49;;;;;;;19.67;9.05;;;8.90;99.90;;;;;;4988212;28;20467;-86
2021/10/12 05:50:18;;;;;;;23.48;9.98;;;9.00;99.90;;;;;;4987413;28;20070;-88
2021/10/12 05:55:39;;;;;;;25.73;9.90;;;8.90;99.90;;;;;;4974826;28;20059;-87
2021/10/12 05:58:11;;;;;;;30.83;11.98;;;9.00;99.90;;;;;;4992944;28;20046;-84
2021/10/12 06:00:39;;;;;;;35.72;11.80;;;8.90;99.90;;;;;;4988780;28;20054;-84
2021/10/12 06:03:07;;;;;;;26.95;8.45;;;9.70;99.90;;;;;;4984395;28;20058;-85
2021/10/12 06:05:35;;;;;;;34.90;11.60;;;8.90;99.90;;;;;;4973904;28;20414;-87
2021/10/12 06:08:04;;;;;;;28.13;10.38;;;8.90;99.90;;;;;;4978403;28;20059;-84
2021/10/12 06:10:35;;;;;;;25.73;9.80;;;8.90;99.90;;;;;;4968676;28;20054;-88
2021/10/12 06:13:08;;;;;;;25.60;10.70;;;8.90;99.90;;;;;;4976852;28;20047;-87
2021/10/12 06:15:41;;;;;;;28.85;10.07;;;8.90;99.90;;;;;;4998474;28;20050;-87
2021/10/12 06:18:15;;;;;;;32.25;9.73;;;8.90;99.90;;;;;;4985291;28;20058;-87
2021/10/12 06:20:55;;;;;;;25.98;10.32;;;8.90;99.90;;;;;;5007239;28;20069;-85
2021/10/12 06:23:37;;;;;;;18.75;9.05;;;8.90;99.90;;;;;;4980707;28;20039;-85
2021/10/12 06:26:07;;;;;;;21.80;8.65;;;8.90;99.90;;;;;;4993091;28;20042;-86
2021/10/12 06:28:38;;;;;;;24.42;10.85;;;9.00;99.90;;;;;;4995863;28;20050;-86
2021/10/12 06:31:14;;;;;;;23.80;9.90;;;9.00;99.90;;;;;;4993009;28;20053;-85
2021/10/12 06:33:43;;;;;;;26.30;10.32;;;9.00;99.90;;;;;;4992118;28;20065;-88
2021/10/12 06:36:13;;;;;;;22.92;9.50;;;9.10;99.90;;;;;;4981381;28;20043;-86
2021/10/12 06:38:41;;;;;;;25.70;9.32;;;9.00;99.90;;;;;;4981246;28;20415;-86
2021/10/12 06:41:17;;;;;;;34.05;13.02;;;9.10;99.90;;;;;;4980543;28;20050;-87
2021/10/12 06:44:15;;;;;;;28.23;10.30;;;9.30;99.90;;;;;;4986989;28;20912;-84
2021/10/12 06:46:48;;;;;;;28.25;10.93;;;9.10;99.90;;;;;;4992883;28;20073;-86
2021/10/12 06:49:25;;;;;;;26.67;9.57;;;9.10;99.90;;;;;;4986707;28;20114;-86
2021/10/12 06:52:09;;;;;;;25.80;9.98;;;9.20;99.90;;;;;;4990595;28;20058;-87
2021/10/12 06:54:55;;;;;;;26.83;9.50;;;9.30;99.90;;;;;;4970036;28;20066;-92
2021/10/12 06:59:09;;;;;;;34.17;13.27;;;9.30;99.90;;;;;;5038239;23;20636;-89
2021/10/12 07:01:49;;;;;;;28.65;11.35;;;9.30;99.90;;;;;;4996195;28;20080;-89
2021/10/12 07:04:26;;;;;;;31.83;10.90;;;9.40;99.90;;;;;;5005846;28;20504;-90
2021/10/12 07:07:15;;;;;;;24.10;10.27;;;9.60;99.90;;;;;;4997559;28;20041;-93
2021/10/12 07:10:10;;;;;;;28.02;12.10;;;9.90;99.90;;;;;;5013862;23;20036;-91
2021/10/12 07:13:29;;;;;;;26.20;9.32;;;9.50;99.90;;;;;;5029889;28;20051;-91
2021/10/12 07:16:11;;;;;;;22.02;9.88;;;10.10;99.90;;;;;;4994412;28;20029;-90
2021/10/12 07:19:39;;;;;;;20.67;9.38;;;9.60;99.90;;;;;;5018645;28;20057;-90
2021/10/12 07:23:25;;;;;;;27.85;9.85;;;10.30;99.90;;;;;;5023683;28;20053;-90
2021/10/12 07:29:49;;;;;;;23.63;10.88;;;9.70;99.90;;;;;;5008323;28;20066;-91
2021/10/12 07:44:04;;;;;;;;;;;;;;;;;;;;;
2021/10/12 07:47:36;;;;;;;31.48;9.90;;;10.20;99.90;;;;;;4848806;29;20065;-82
2021/10/12 07:50:22;;;;;;;;;;;;;;;;;;;;;
2021/10/12 07:57:40;;;;;;;26.00;10.55;;;10.50;99.90;;;;;;4818171;29;20046;-85
2021/10/12 08:00:55;;;;;;;24.95;9.38;;;10.20;99.90;;;;;;4860472;29;20041;-85
2021/10/12 08:07:18;;;;;;;22.15;12.00;;;10.20;99.90;;;;;;4904796;29;20075;-86
2021/10/12 08:10:23;;;;;;;19.88;9.20;;;10.20;99.90;;;;;;4926501;29;20063;-84
2021/10/12 08:13:19;;;;;;;26.15;8.90;;;10.20;99.90;;;;;;4930294;29;20058;-85
2021/10/12 08:19:51;;;;;;;22.60;8.40;;;10.70;99.90;;;;;;4910589;29;20056;-88
2021/10/12 08:23:04;;;;;;;22.58;7.90;;;10.30;99.90;;;;;;4928207;29;20070;-86
2021/10/12 08:25:57;;;;;;;28.35;8.98;;;10.20;99.90;;;;;;4967104;28;20058;-85
2021/10/12 08:28:41;;;;;;;22.05;9.02;;;9.20;99.90;;;;;;4951659;28;20073;-83
2021/10/12 08:31:51;;;;;;;;;;;;;;;;;;;;;
2021/10/12 08:40:12;;;;;;;30.15;8.82;;;10.30;99.90;;;;;;4949161;29;20048;-85
2021/10/12 08:43:31;;;;;;;;;;;;;;;;;;;;;
2021/10/12 08:46:58;;;;;;;26.55;11.30;;;10.00;99.90;;;;;;4965992;28;20536;-82
2021/10/12 08:53:40;;;;;;;32.38;10.35;;;11.10;99.90;;;;;;5045855;28;20045;-83
2021/10/12 08:57:13;;;;;;;;;;;;;;;;;;;;;
2021/10/12 09:00:48;;;;;;;28.08;10.50;;;9.90;99.90;;;;;;5023735;28;20053;-83
2021/10/12 09:09:17;;;;;;;26.45;9.88;;;10.80;99.90;;;;;;4910837;29;20059;-84
2021/10/12 09:12:52;;;;;;;23.52;10.45;;;10.90;99.90;;;;;;4947544;29;20603;-84
2021/10/12 09:16:03;;;;;;;32.45;14.18;;;11.00;99.90;;;;;;4960125;29;20063;-85
2021/10/12 09:23:29;;;;;;;;;;;;;;;;;;;;;
2021/10/12 09:27:24;;;;;;;;;;;;;;;;;;;;;
2021/10/12 09:35:29;;;;;;;37.97;11.00;;;11.40;99.90;;;;;;4764150;30;20066;-85
2021/10/12 09:56:17;;;;;;;;;;;;;;;;;;;;;
2021/10/12 10:00:43;;;;;;;;;;;;;;;;;;;;;
2021/10/12 10:08:19;;;;;;;;;;;;;;;;;;;;;
2021/10/12 10:15:26;;;;;;;26.27;8.05;;;13.00;99.90;;;;;;4844154;29;20095;-85
2021/10/12 10:23:03;;;;;;;34.50;11.05;;;12.40;99.90;;;;;;4875391;29;20025;-86
2021/10/12 10:49:31;;;;;;;14.35;6.05;;;12.80;99.90;;;;;;5110370;27;20132;-90
2021/10/12 10:57:29;;;;;;;;;;;;;;;;;;;;;
2021/10/12 11:01:22;;;;;;;13.30;5.20;;;15.30;99.90;;;;;;5057078;28;20056;-87
2021/10/12 11:05:03;;;;;;;10.65;4.32;;;14.60;99.90;;;;;;5035793;28;20057;-88
2021/10/12 11:12:18;;;;;;;18.02;4.60;;;14.90;99.90;;;;;;5033907;28;20596;-88
2021/10/12 11:16:07;;;;;;;10.70;4.03;;;15.10;99.90;;;;;;5026773;28;20077;-87
2021/10/12 11:20:23;;;;;;;17.88;4.05;;;15.00;99.90;;;;;;5068666;28;20037;-88
2021/10/12 11:24:13;;;;;;;17.67;3.70;;;15.00;99.90;;;;;;4947680;28;20537;-83
2021/10/12 11:29:02;;;;;;;;;;;;;;;;;;;;;
2021/10/12 11:32:21;;;;;;;14.32;4.30;;;15.30;99.90;;;;;;4970743;28;20058;-86
2021/10/12 11:35:16;;;;;;;25.23;4.63;;;15.20;99.90;;;;;;4978731;28;20247;-87
2021/10/12 11:41:43;;;;;;;17.10;3.88;;;15.00;99.90;;;;;;4961471;28;20055;-84
2021/10/12 11:44:55;;;;;;;12.68;4.45;;;15.70;99.90;;;;;;4964830;28;20047;-84
2021/10/12 11:52:16;;;;;;;;;;;;;;;;;;;;;
2021/10/12 11:55:39;;;;;;;22.17;5.03;;;15.60;99.90;;;;;;5024287;28;20045;-82
2021/10/12 12:02:45;;;;;;;11.43;3.38;;;15.70;99.90;;;;;;4992508;28;20050;-87
2021/10/12 12:06:06;;;;;;;;;;;;;;;;;;;;;
2021/10/12 12:09:41;;;;;;;7.10;3.33;;;16.30;99.90;;;;;;4906760;29;20066;-84
2021/10/12 12:12:30;;;;;;;11.88;3.55;;;15.70;99.90;;;;;;4957740;29;20144;-91
2021/10/12 12:21:00;;;;;;;7.68;2.70;;;15.70;99.90;;;;;;4935583;29;20059;-83
2021/10/12 12:24:15;;;;;;;;;;;;;;;;;;;;;
2021/10/12 12:27:07;;;;;;;10.70;3.22;;;15.90;99.90;;;;;;5041200;28;20236;-84
2021/10/12 12:30:54;;;;;;;12.55;3.42;;;15.90;99.90;;;;;;5025645;28;20045;-82
2021/10/12 12:34:14;;;;;;;;;;;;;;;;;;;;;
2021/10/12 12:37:40;;;;;;;;;;;;;;;;;;;;;
2021/10/12 12:41:22;;;;;;;14.68;3.03;;;16.10;99.90;;;;;;4973597;28;20428;-86
2021/10/12 12:44:31;;;;;;;8.15;3.08;;;16.30;99.90;;;;;;4994604;28;20550;-86
2021/10/12 12:47:33;;;;;;;6.43;2.78;;;16.60;99.90;;;;;;5013427;28;20050;-87
2021/10/12 12:51:13;;;;;;;;;;;;;;;;;;;;;
2021/10/12 12:58:14;;;;;;;8.48;2.20;;;16.50;99.90;;;;;;4990792;28;20054;-85
2021/10/12 13:07:02;;;;;;;;;;;;;;;;;;;;;
2021/10/12 13:10:57;;;;;;;;;;;;;;;;;;;;;
2021/10/12 13:18:59;;;;;;;10.48;2.47;;;17.90;99.90;;;;;;4795358;29;19914;-92
2021/10/12 13:26:40;;;;;;;;;;;;;;;;;;;;;
2021/10/12 13:39:46;;;;;;;;;;;;;;;;;;;;;
2021/10/12 13:42:42;;;;;;;3.65;1.88;;;17.20;99.90;;;;;;4843902;29;20188;-86
2021/10/12 13:45:55;;;;;;;;;;;;;;;;;;;;;
2021/10/12 13:49:29;;;;;;;;;;;17.10;99.90;;;;;;4906033;29;20056;-90
2021/10/12 13:53:27;;;;;;;8.32;2.25;;;15.70;99.90;;;;;;4951718;28;19925;-86
2021/10/12 14:01:23;;;;;;;;;;;;;;;;;;;;;
2021/10/12 14:04:01;;;;;;;6.70;2.00;;;17.00;99.90;;;;;;4910301;29;20070;-82
2021/10/12 14:07:25;;;;;;;8.27;3.30;;;17.00;99.90;;;;;;4906481;29;20543;-86
2021/10/12 14:11:38;;;;;;;16.10;3.67;;;17.10;99.90;;;;;;4898080;29;20113;-84
2021/10/12 14:14:54;;;;;;;8.07;1.80;;;17.10;99.90;;;;;;4944581;29;20062;-86
2021/10/12 14:17:36;;;;;;;10.57;2.53;;;17.10;99.90;;;;;;4975968;28;20046;-84
2021/10/12 14:20:29;;;;;;;8.32;1.85;;;16.80;99.90;;;;;;5005047;28;20499;-85
2021/10/12 14:24:59;;;;;;;5.18;2.78;;;17.00;99.90;;;;;;5017224;28;20052;-86
2021/10/12 14:28:59;;;;;;;7.32;1.90;;;16.90;99.90;;;;;;5024959;28;20041;-88
2021/10/12 14:32:10;;;;;;;5.55;2.00;;;15.90;99.90;;;;;;5021973;28;20064;-87
2021/10/12 14:35:56;;;;;;;9.68;2.25;;;16.60;99.90;;;;;;5036977;28;20714;-85
2021/10/12 14:40:05;;;;;;;9.27;2.30;;;17.50;99.90;;;;;;4969178;28;20589;-85
2021/10/12 14:43:44;;;;;;;9.02;3.33;;;17.00;99.90;;;;;;4996146;28;20038;-86
2021/10/12 14:58:16;;;;;;;11.20;3.35;;;16.20;99.90;;;;;;4959489;28;20147;-85
2021/10/12 15:02:50;;;;;;;;;;;;;;;;;;;;;
2021/10/12 15:06:18;;;;;;;10.05;4.97;;;16.20;99.90;;;;;;4879809;29;20044;-87
2021/10/12 15:09:22;;;;;;;5.82;3.97;;;16.20;99.90;;;;;;4892536;29;20053;-89
2021/10/12 15:11:52;;;;;;;7.93;3.03;;;16.20;99.90;;;;;;4965760;28;20061;-86
2021/10/12 15:14:47;;;;;;;9.73;3.88;;;16.20;99.90;;;;;;4970122;28;20050;-87
2021/10/12 15:17:25;;;;;;;8.30;3.67;;;16.20;99.90;;;;;;5009795;28;20044;-86
2021/10/12 15:20:05;;;;;;;11.07;4.25;;;16.00;99.90;;;;;;5059352;28;20048;-85
2021/10/12 15:23:50;;;;;;;;;;;;;;;;;;;;;
2021/10/12 15:27:54;;;;;;;9.98;3.60;;;15.90;99.90;;;;;;5006820;28;20059;-86
2021/10/12 15:36:31;;;;;;;;;;;;;;;;;;;;;
2021/10/12 15:39:51;;;;;;;14.55;3.53;;;16.30;99.90;;;;;;4945778;28;20043;-88
2021/10/12 15:42:53;;;;;;;10.95;3.50;;;17.50;99.90;;;;;;4948121;28;20054;-83
2021/10/12 15:51:05;;;;;;;15.35;3.75;;;15.30;99.90;;;;;;4895169;29;20071;-85
2021/10/12 15:55:08;;;;;;;13.20;3.97;;;15.70;99.90;;;;;;4912584;29;20056;-83
2021/10/12 15:58:05;;;;;;;7.55;3.08;;;15.60;99.90;;;;;;4924095;29;20079;-88
2021/10/12 16:01:20;;;;;;;9.45;4.50;;;15.60;99.90;;;;;;4949761;28;20058;-84
2021/10/12 16:03:54;;;;;;;10.38;3.60;;;15.50;99.90;;;;;;4965718;28;20054;-84
2021/10/12 16:06:23;;;;;;;13.30;3.60;;;15.50;99.90;;;;;;4952477;28;20103;-86
2021/10/12 16:09:00;;;;;;;6.38;3.42;;;15.60;99.90;;;;;;4933655;28;20047;-86
2021/10/12 16:13:14;;;;;;;8.02;4.18;;;15.50;99.90;;;;;;5012627;28;20188;-85
2021/10/12 16:24:18;;;;;;;6.78;4.05;;;15.30;99.90;;;;;;5076244;28;20048;-84
2021/10/12 16:26:48;;;;;;;6.43;2.38;;;15.30;99.90;;;;;;5085332;28;20044;-84
2021/10/12 16:29:36;;;;;;;3.65;2.55;;;15.20;99.90;;;;;;5065801;28;20067;-90
2021/10/12 16:33:36;;;;;;;;;;;;;;;;;;;;;
2021/10/12 16:42:13;;;;;;;;;;;;;;;;;;;;;
2021/10/12 16:45:42;;;;;;;8.13;2.25;;;14.90;99.90;;;;;;4779529;30;20035;-85
2021/10/12 16:49:26;;;;;;;;;;;;;;;;;;;;;
2021/10/12 16:53:10;;;;;;;;;;;;;;;;;;;;;
2021/10/12 16:56:57;;;;;;;;;;;;;;;;;;;;;
2021/10/12 17:09:52;;;;;;;;;;;;;;;;;;;;;
2021/10/12 17:13:52;;;;;;;4.97;2.35;;;14.50;99.90;;;;;;4876871;29;20057;-85
2021/10/12 17:17:48;;;;;;;;;;;;;;;;;;;;;
2021/10/12 17:21:18;;;;;;;15.02;3.25;;;14.40;99.90;;;;;;4887798;29;20045;-88
2021/10/12 17:29:47;;;;;;;8.00;4.47;;;13.30;99.90;;;;;;4879037;29;20049;-85
2021/10/12 17:32:23;;;;;;;3.30;2.90;;;14.00;99.90;;;;;;4931395;29;20626;-84
2021/10/12 17:35:32;;;;;;;8.25;3.50;;;13.50;99.90;;;;;;4926061;28;20062;-83
2021/10/12 17:38:21;;;;;;;9.82;5.03;;;13.70;99.90;;;;;;4963789;28;20054;-82
2021/10/12 17:41:07;;;;;;;8.98;3.80;;;13.70;99.90;;;;;;4954272;28;20531;-84
2021/10/12 17:43:38;;;;;;;13.98;5.90;;;13.60;99.90;;;;;;4972122;28;20043;-84
2021/10/12 17:46:35;;;;;;;9.45;4.68;;;13.60;99.90;;;;;;4953525;28;20077;-85
2021/10/12 17:49:34;;;;;;;10.68;4.97;;;13.60;99.90;;;;;;4958131;28;20105;-84
2021/10/12 17:52:17;;;;;;;8.07;4.45;;;13.60;99.90;;;;;;4989750;28;20049;-83
2021/10/12 17:55:11;;;;;;;8.32;4.03;;;13.50;99.90;;;;;;5009127;28;20045;-84
2021/10/12 17:58:57;;;;;;;13.38;3.88;;;13.60;99.90;;;;;;5007813;28;20372;-85
2021/10/12 18:02:04;;;;;;;13.30;4.28;;;13.70;99.90;;;;;;5031700;22;20049;-91
2021/10/12 18:04:34;;;;;;;9.38;4.10;;;13.70;99.90;;;;;;5051769;28;20386;-87
2021/10/12 18:07:04;;;;;;;9.02;4.53;;;13.70;99.90;;;;;;5040270;28;20049;-88
2021/10/12 18:09:36;;;;;;;12.27;5.35;;;13.80;99.90;;;;;;5034877;28;20056;-85
2021/10/12 18:12:07;;;;;;;12.98;5.90;;;13.80;99.90;;;;;;5038870;28;20053;-88
2021/10/12 18:15:13;;;;;;;11.00;4.35;;;13.80;99.90;;;;;;5059545;28;20045;-90
2021/10/12 18:17:46;;;;;;;15.32;5.78;;;13.90;99.90;;;;;;5035208;28;20044;-87
2021/10/12 18:20:20;;;;;;;18.27;6.38;;;13.90;99.90;;;;;;5038980;28;20049;-87
2021/10/12 18:22:48;;;;;;;16.83;6.70;;;13.90;99.90;;;;;;5032326;28;20036;-87
2021/10/12 18:25:17;;;;;;;14.05;5.55;;;14.00;99.90;;;;;;5013132;28;20064;-88
2021/10/12 18:28:00;;;;;;;11.63;5.35;;;14.00;99.90;;;;;;5046564;28;20041;-87
2021/10/12 18:30:43;;;;;;;14.65;5.45;;;14.00;99.90;;;;;;5050127;28;20060;-87
2021/10/12 18:33:13;;;;;;;11.82;5.20;;;14.00;99.90;;;;;;5045541;28;20120;-88
2021/10/12 18:35:44;;;;;;;10.02;4.03;;;14.10;99.90;;;;;;5031129;28;20049;-89
2021/10/12 18:38:12;;;;;;;9.75;5.28;;;14.00;99.90;;;;;;5044338;28;20507;-86
2021/10/12 18:41:03;;;;;;;9.02;4.88;;;14.00;99.90;;;;;;5031038;28;20057;-86
2021/10/12 18:43:33;;;;;;;10.30;5.53;;;14.00;99.90;;;;;;5045239;28;20132;-88
2021/10/12 18:46:02;;;;;;;9.25;4.10;;;14.00;99.90;;;;;;5074997;28;20045;-87
2021/10/12 18:48:40;;;;;;;8.27;4.55;;;14.00;99.90;;;;;;5055241;28;20049;-87
2021/10/12 18:51:18;;;;;;;11.15;5.45;;;14.00;99.90;;;;;;5059525;28;20057;-86
2021/10/12 18:53:55;;;;;;;12.73;6.05;;;14.00;99.90;;;;;;5057986;28;20045;-86
2021/10/12 18:56:30;;;;;;;11.55;5.70;;;14.00;99.90;;;;;;5056900;28;20060;-89
2021/10/12 18:59:03;;;;;;;17.00;5.00;;;14.00;99.90;;;;;;5058298;28;20056;-89
2021/10/12 19:01:45;;;;;;;12.82;4.78;;;14.00;99.90;;;;;;5059758;28;20053;-90